This is the latest recevied weather packets stored in our database for station/object W8AN. If no packets are shown the sender has not sent any weather packets the latest 10 day(s).
| Time | Temp. | Humidity | Pressure | Rain* | Wind** | Luminosity | Snow |
|---|---|---|---|---|---|---|---|
| 1777671067 | 8.33° C | 70% | 4269.6 hPa | 0 mm | - | 45 W/m² | - |
| 1777670763 | 8.33° C | 71% | 4269.3 hPa | 0 mm | - | 54 W/m² | - |
| 1777670460 | 8.89° C | 69% | 4269.1 hPa | 0 mm | - | 94 W/m² | - |
| 1777670157 | 9.44° C | 69% | 4269.2 hPa | 0 mm | - | 158 W/m² | - |
| 1777669855 | 8.89° C | 69% | 4269.3 hPa | 0 mm | - | 199 W/m² | - |
| 1777669551 | 8.89° C | 67% | 4269.3 hPa | 0 mm | - | 181 W/m² | - |
| 1777669248 | 8.89° C | 68% | 4269.1 hPa | 0 mm | - | 133 W/m² | - |
| 1777668944 | 8.33° C | 69% | 4269.1 hPa | 0 mm | - | 147 W/m² | - |
| 1777668642 | 8.89° C | 68% | 4269 hPa | 0 mm | - | 197 W/m² | - |
| 1777668338 | 8.89° C | 69% | 4269.2 hPa | 0 mm | - | 215 W/m² | - |
| 1777668034 | 10.56° C | 67% | 4269 hPa | 0 mm | - | 225 W/m² | - |
| 1777667731 | 8.89° C | 71% | 4269.1 hPa | 0 mm | - | 629 W/m² | - |
| 1777667429 | 8.33° C | 71% | 4269.3 hPa | 0 mm | - | 374 W/m² | - |
| 1777667126 | 8.33° C | 73% | 4269.3 hPa | 0 mm | - | 318 W/m² | - |
| 1777666822 | 7.78° C | 75% | 4269.2 hPa | 0 mm | - | 134 W/m² | - |
| 1777666520 | 7.78° C | 75% | 4269.4 hPa | 0 mm | - | 112 W/m² | - |
| 1777666216 | 7.78° C | 74% | 4269.3 hPa | 0 mm | - | 105 W/m² | - |
| 1777665913 | 7.78° C | 75% | 4269.3 hPa | 0 mm | - | 92 W/m² | - |
| 1777665610 | 7.78° C | 75% | 4269.1 hPa | 0 mm | - | 79 W/m² | - |
| 1777665307 | 7.78° C | 75% | 4269.1 hPa | 0 mm | - | 86 W/m² | - |
| 1777665003 | 8.33° C | 74% | 4269 hPa | 0 mm | - | 111 W/m² | - |
| 1777664698 | 8.33° C | 73% | 4269 hPa | 0 mm | - | 142 W/m² | - |
| 1777664394 | 7.78° C | 73% | 4268.9 hPa | 0 mm | - | 237 W/m² | - |
| 1777664093 | 7.78° C | 72% | 4269.1 hPa | 0 mm | - | 239 W/m² | - |
| 1777663790 | 7.78° C | 74% | 4269 hPa | 0 mm | - | 284 W/m² | - |
* Rain latest hour (hover to see other rain measurements)
** Current wind speed in m/s (hover to see current wind gust speed)